• Join FlightAware (Why Join?)
  • Login
  • US Flag 
11:40PM EDT


 

Airport Tracker/Info


-or-


 

Live Flight TrackerFlight Track Log ✈ N421VA ✈ 09-Jun-2013 ✈ KPMH - KHXD

Flight Track Log - Related Links

Times and Time Zones

All times are in EDT time to prevent confusion due to time zone crossing. See the N421VA flight status page for this flight to view local times or setup timezone preferences in your user account.

Time Position Orientation Groundspeed Altitude Reporting Facility
EDT Latitude Longitude Course Direction KTS MPH feet Rate Location/Type
12:46PM 38.7217 -82.8219 165° South 144 166 3,000  Level Indianapolis Center
12:47PM 38.6839 -82.8136 170° South 138 159 3,600 540 Climbing Indianapolis Center
12:48PM 38.6406 -82.8028 169° South 143 165 4,200 600 Climbing Indianapolis Center
12:49PM 38.6022 -82.7892 164° South 143 165 4,900 540 Climbing Indianapolis Center
12:50PM 38.5642 -82.7753 164° South 143 165 5,400 540 Climbing Indianapolis Center
12:51PM 38.5962 -82.7610 165° South  Level Estimated
12:51PM 38.5242 -82.7597 163° South 150 173 6,100  Level Indianapolis Center
12:52PM 38.4856 -82.7414 160° South 147 169 6,800 840 Climbing Indianapolis Center
12:53PM 38.4442 -82.7156 154° Southeast 138 159 7,900 780 Climbing Indianapolis Center
12:54PM 38.4111 -82.6867 146° Southeast 142 163 8,500 540 Climbing Indianapolis Center
12:55PM 38.3722 -82.6589 151° Southeast 155 178 9,100 540 Climbing Indianapolis Center
12:56PM 38.3350 -82.6303 149° Southeast 157 181 9,700 540 Climbing Indianapolis Center
12:57PM 38.2961 -82.6053 153° Southeast 156 180 10,300 540 Climbing Indianapolis Center
12:58PM 38.2483 -82.5856 162° South 155 178 10,900 420 Climbing Indianapolis Center
12:59PM 38.2072 -82.5686 162° South 156 180 11,200 420 Climbing Indianapolis Center
01:00PM 38.1675 -82.5356 147° Southeast 166 191 11,800 600 Climbing Indianapolis Center
01:01PM 38.1286 -82.5025 146° Southeast 168 193 12,500 660 Climbing Indianapolis Center
01:02PM 38.0919 -82.4697 145° Southeast 163 188 13,200 660 Climbing Indianapolis Center
01:03PM 38.0544 -82.4358 145° Southeast 163 188 13,900 660 Climbing Indianapolis Center
01:04PM 38.0117 -82.3950 143° Southeast 165 190 14,600 660 Climbing Indianapolis Center
01:05PM 37.9722 -82.3667 150° Southeast 164 189 15,300 660 Climbing Indianapolis Center
01:06PM 37.9311 -82.3531 165° South 155 178 16,000 600 Climbing Indianapolis Center
01:07PM 37.8914 -82.3383 164° South 149 171 16,600 480 Climbing Indianapolis Center
01:08PM 37.8517 -82.3244 165° South 148 170 17,100 480 Climbing Indianapolis Center
01:09PM 37.8108 -82.3122 167° South 150 173 17,700 420 Climbing Indianapolis Center
01:10PM 37.7703 -82.3039 171° South 148 170 18,000 420 Climbing Indianapolis Center
01:11PM 37.7233 -82.2906 167° South 150 173 18,600 480 Climbing Indianapolis Center
01:12PM 37.6831 -82.2786 167° South 149 171 19,100 180 Climbing Indianapolis Center
01:13PM 37.6353 -82.2692 171° South 170 196 19,000 -60 Descending Indianapolis Center
01:14PM 37.5847 -82.2614 173° South 179 206 19,000  Level Indianapolis Center
01:16PM 37.5331 -82.2514 171° South 184 212 19,000  Level Indianapolis Center
01:17PM 37.4831 -82.2439 173° South 182 209 19,000  Level Indianapolis Center
01:18PM 37.4289 -82.2325 171° South 170 196 19,000  Level Indianapolis Center
01:19PM 37.3814 -82.2208 169° South 172 198 19,000  Level Indianapolis Center
01:20PM 37.3333 -82.2036 164° South 177 204 19,000  Level Indianapolis Center
01:21PM 37.2856 -82.1872 165° South 177 204 19,000  Level Indianapolis Center
01:22PM 37.2367 -82.1725 167° South 180 207 19,000  Level Indianapolis Center
01:23PM 37.1883 -82.1575 166° South 178 205 19,000  Level Indianapolis Center
01:24PM 37.1406 -82.1403 164° South 177 204 19,000  Level Indianapolis Center
01:25PM 37.0850 -82.1194 163° South 178 205 19,000  Level Indianapolis Center
01:26PM 37.0372 -82.1014 163° South 179 206 19,000  Level Indianapolis Center
01:27PM 36.9894 -82.0819 162° South 179 206 19,000  Level Indianapolis Center
01:28PM 36.9408 -82.0628 163° South 181 208 19,000  Level Indianapolis Center
01:29PM 36.8928 -82.0444 163° South 181 208 19,000  Level Indianapolis Center
01:30PM 36.8447 -82.0250 162° South 181 208 19,000  Level Indianapolis Center
01:31PM 36.7983 -82.0058 162° South 176 203 19,000  Level Indianapolis Center
01:32PM 36.7456 -81.9842 162° South 172 198 19,000  Level Indianapolis Center
01:33PM 36.6978 -81.9647 162° South 178 205 19,000  Level Indianapolis Center
01:34PM 36.6514 -81.9458 162° South 176 203 19,000  Level Indianapolis Center
01:35PM 36.6053 -81.9261 161° South 174 200 19,000  Level Indianapolis Center
01:35PM 36.5864 -81.9214 169° South 180 207 19,000  Level Atlanta Center
01:36PM 36.5403 -81.9044 164° South 180 207 19,000  Level Atlanta Center
01:37PM 36.4961 -81.8850 161° South 175 201 19,000  Level Atlanta Center
01:38PM 36.4478 -81.8681 164° South 175 201 19,000  Level Atlanta Center
01:39PM 36.4039 -81.8514 163° South 175 201 19,000  Level Atlanta Center
01:40PM 36.3578 -81.8397 168° South 175 201 19,000  Level Atlanta Center
01:41PM 36.3094 -81.8231 164° South 175 201 19,000  Level Atlanta Center
01:42PM 36.2633 -81.8089 166° South 175 201 19,000  Level Atlanta Center
01:43PM 36.2150 -81.7947 167° South 180 207 19,000  Level Atlanta Center
01:44PM 36.1628 -81.7808 168° South 180 207 19,000  Level Atlanta Center
01:45PM 36.1186 -81.7717 170° South 180 207 19,000  Level Atlanta Center
01:46PM 36.0725 -81.7600 168° South 180 207 19,000  Level Atlanta Center
01:47PM 36.0264 -81.7486 169° South 180 207 19,000  Level Atlanta Center
01:48PM 35.9783 -81.7397 171° South 180 207 19,000  Level Atlanta Center
01:49PM 35.9322 -81.7308 171° South 180 207 19,000  Level Atlanta Center
01:50PM 35.8819 -81.7192 169° South 180 207 19,000  Level Atlanta Center
01:51PM 35.8339 -81.7106 172° South 180 207 19,000  Level Atlanta Center
01:52PM 35.7856 -81.6939 164° South 180 207 19,000  Level Atlanta Center
01:53PM 35.7372 -81.6825 169° South 180 207 19,000  Level Atlanta Center
01:54PM 35.6911 -81.6633 161° South 180 207 19,000  Level Atlanta Center
01:55PM 35.6469 -81.6467 163° South 180 207 19,000  Level Atlanta Center
01:56PM 35.5986 -81.6278 162° South 180 207 19,000  Level Atlanta Center
01:57PM 35.5522 -81.6061 159° South 185 213 19,000  Level Atlanta Center
01:58PM 35.5039 -81.5872 162° South 185 213 19,000  Level Atlanta Center
01:59PM 35.4533 -81.5683 163° South 185 213 19,000  Level Atlanta Center
02:00PM 35.4072 -81.5467 159° South 185 213 19,000  Level Atlanta Center
02:01PM 35.3586 -81.5253 160° South 190 219 19,000  Level Atlanta Center
02:02PM 35.3125 -81.5089 164° South 190 219 19,000  Level Atlanta Center
02:03PM 35.2642 -81.4875 160° South 185 213 19,000  Level Atlanta Center
02:04PM 35.2092 -81.4636 160° South 185 213 19,000  Level Atlanta Center
02:05PM 35.1631 -81.4447 161° South 185 213 19,000  Level Atlanta Center
02:06PM 35.1167 -81.4258 162° South 185 213 19,000  Level Atlanta Center
02:07PM 35.0661 -81.4022 159° South 190 219 19,000  Level Atlanta Center
02:08PM 35.0197 -81.3808 159° South 185 213 19,000  Level Atlanta Center
02:09PM 34.9733 -81.3619 162° South 185 213 19,000  Level Atlanta Center
02:10PM 34.9250 -81.3408 160° South 185 213 19,000  Level Atlanta Center
02:11PM 34.8786 -81.3219 162° South 185 213 19,000  Level Atlanta Center
02:12PM 34.8303 -81.3008 160° South 185 213 19,000  Level Atlanta Center
02:13PM 34.7819 -81.2947 174° South 183 211 19,000  Level Atlanta Center
02:15PM 34.6961 -81.2817 173° South 184 212 19,000  Level Jacksonville Center
02:16PM 34.6481 -81.2722 171° South 179 206 19,000  Level Jacksonville Center
02:17PM 34.5978 -81.2606 169° South 179 206 19,000  Level Jacksonville Center
02:18PM 34.5475 -81.2492 169° South 179 206 19,000  Level Jacksonville Center
02:19PM 34.4975 -81.2400 171° South 179 206 19,000  Level Jacksonville Center
02:20PM 34.4431 -81.2258 168° South 179 206 19,000  Level Jacksonville Center
02:21PM 34.3950 -81.2192 173° South 179 206 19,000  Level Jacksonville Center
02:22PM 34.3489 -81.2075 168° South 179 206 19,000  Level Jacksonville Center
02:23PM 34.3008 -81.1983 171° South 179 206 19,000  Level Jacksonville Center
02:24PM 34.2672 -81.1864 164° South 172 198 19,000  Level Jacksonville Center
02:25PM 34.2064 -81.1725 169° South 177 204 19,000  Level Jacksonville Center
02:26PM 34.1711 -81.1683 174° South 177 204 19,000  Level Jacksonville Center
02:27PM 34.1125 -81.1619 175° South 177 204 19,000  Level Jacksonville Center
02:28PM 34.0644 -81.1528 171° South 177 204 19,000  Level Jacksonville Center
02:29PM 34.0142 -81.1539 181° South 177 204 19,000  Level Jacksonville Center
02:30PM 33.9642 -81.1547 181° South 183 211 19,000  Level Jacksonville Center
02:31PM 33.9142 -81.1583 183° South 183 211 19,000  Level Jacksonville Center
02:32PM 33.8642 -81.1594 181° South 178 205 19,000  Level Jacksonville Center
02:33PM 33.8142 -81.1603 181° South 178 205 19,000 -60 Level Jacksonville Center
02:34PM 33.7681 -81.1611 181° South 178 205 18,900 -240 Descending Jacksonville Center
02:35PM 33.7161 -81.1622 181° South 186 214 18,600 -480 Descending Jacksonville Center
02:36PM 33.6597 -81.1658 183° South 197 227 18,000 -600 Descending Jacksonville Center
02:37PM 33.6033 -81.1669 181° South 204 235 17,500 -600 Descending Jacksonville Center
02:38PM 33.5450 -81.1681 181° South 204 235 16,900 -840 Descending Jacksonville Center
02:40PM 33.4902 -81.1377 155° Southeast  Level FlightAware Approximate
02:40PM 33.4303 -81.1778 155° Southeast 215 247 15,100  Level Jacksonville Center
02:41PM 33.3742 -81.1814 183° South 215 247 14,300 -900 Descending Jacksonville Center
02:42PM 33.3156 -81.1850 183° South 215 247 13,400 -900 Descending Jacksonville Center
02:43PM 33.2594 -81.1911 185° South 215 247 12,500 -900 Descending Jacksonville Center
02:44PM 33.2031 -81.1969 185° South 215 247 11,700 -900 Descending Jacksonville Center
02:45PM 33.1469 -81.2106 191° South 215 247 10,700 -720 Descending Jacksonville Center
02:46PM 33.0975 -81.2511 214° Southwest 210 242 10,300 -720 Descending Jacksonville Center
02:47PM 33.0647 -81.3136 238° Southwest 210 242 9,300 -960 Descending Jacksonville Center
02:48PM 33.0342 -81.3711 238° Southwest 216 249 8,400 -780 Descending Jacksonville Center
02:49PM 32.9972 -81.4289 233° Southwest 222 255 7,800 -600 Descending Jacksonville Center
02:50PM 32.9494 -81.4567 206° Southwest 217 250 7,300 -480 Descending Jacksonville Center
02:51PM 32.8975 -81.4600 183° South 188 216 6,900 -600 Descending Jacksonville Center
02:52PM 32.8431 -81.4608 181° South 188 216 6,200 -600 Descending Jacksonville Center
02:53PM 32.8011 -81.4244 144° Southeast 175 201 5,700 -600 Descending Jacksonville Center
02:54PM 32.7714 -81.3831 130° Southeast 175 201 5,100 -360 Descending Jacksonville Center
02:55PM 32.7394 -81.3417 133° Southeast 169 194 5,000 -60 Descending Jacksonville Center
02:56PM 32.7097 -81.3000 130° Southeast 169 194 5,000  Level Jacksonville Center
02:57PM 32.6778 -81.2586 133° Southeast 155 178 5,000  Level Jacksonville Center
02:58PM 32.6503 -81.2197 130° Southeast 155 178 5,000  Level Jacksonville Center
02:59PM 32.6247 -81.1833 130° Southeast 160 184 5,000 -60 Level Jacksonville Center
03:00PM 32.5969 -81.1442 130° Southeast 160 184 4,900 -480 Descending Jacksonville Center
03:01PM 32.5589 -81.0958 133° Southeast 169 194 4,100 -960 Descending Jacksonville Center
03:02PM 32.5206 -81.0522 136° Southeast 180 207 3,000 -600 Descending Jacksonville Center
03:03PM 32.4886 -81.0108 132° Southeast 174 200 3,000 -300 Level Jacksonville Center
03:04PM 32.4794 -80.9594 102° East 162 186 2,500 -600 Descending Jacksonville Center
03:05PM 32.4597 -80.9008 112° Southeast 175 201 1,800 -360 Descending Jacksonville Center
03:06PM 32.4422 -80.8494 112° Southeast 175 201 1,800  Level Jacksonville Center
03:07PM 32.4311 -80.8028 106° East 170 196 1,800  Level Jacksonville Center
03:08PM 32.4197 -80.7467 104° East 158 182 1,800 -60 Level Jacksonville Center
03:09PM 32.4044 -80.7050 113° Southeast 158 182 1,700 -240 Descending Jacksonville Center
03:10PM 32.3706 -80.6764 145° Southeast 149 171 1,400 -240 Descending Jacksonville Center
03:11PM 32.3286 -80.6700 173° South 142 163 1,300 -60 Descending Jacksonville Center
03:12PM 32.2972 -80.6561 159° South 136 157 1,300 1,860 Level Jacksonville Center
03:13PM 32.2614 -80.6397 159° South 136 157 5,000 3,660 Climbing Jacksonville Center
03:15PM 32.2167 -80.6833 North  Level FlightAware Approximate
03:22PM 32.2244 -80.6975 North  Level Estimated
03:23PM 32.2244 -80.6975 North  Level Estimated
03:24PM 32.2244 -80.6975 North  Level Estimated
03:25PM 32.2244 -80.6975 North  Level Estimated
03:26PM 32.2244 -80.6975 North  Level Estimated
03:27PM 32.2244 -80.6975 North  Level Estimated
03:28PM 32.2244 -80.6975 North  Level Estimated
03:29PM 32.2244 -80.6975 North  Level Estimated